Teterboro, NJ

3:00 AM EDT en Julio 04, 2015 (GMT -0400)
Teterboro | | Change Station
CLOSE
Current Station
Aeropuerto
Location: Teterboro,
Altura: 7 ft
Estaciones meteorológicas cercanas

Alt 7 ft 40.86 °N, 74.06 °W | Updated 9 minutes ago

Nublado
Nublado
71 ° F
Sensación térmica 71 ° F
N
0
Viento Variable Viento desde Norte

Hoy
Alta -- | Baja -- ° F
--% Posibilidad de precipitaciones
Ayer
Alta -- | Baja -- ° F
Precip. -- pul
5:29 AM 8:31 PM
Gibosa menguante, 94% visible
Presión 29.96 pul
Visibilidad 10.0 Millas
Nubes Baja 11000 ft
Punto de rocío 59 ° F
Humedad 66%
Precipitaciones 0.00 pul
Espesor de la nieve No disponible.
UV 0 de una escala de 12
Polen 4.10 de una escala de 12
Calidad del aire No disponible.
Flu Activity No disponible.
METAR KTEB 040651Z 00000KT 10SM FEW110 22/15 A2995 RMK AO2 SLP143 T02170150

More Conditions Fewer Conditions

Presión 29.96 pul
Visibilidad 10.0 Millas
Nubes Baja 11000 ft
Punto de rocío 59 ° F
Humedad 66%
Precipitaciones 0.00 pul
Espesor de la nieve No disponible.
UV 0 de una escala de 12
Polen 4.10 de una escala de 12
Calidad del aire No disponible.
Flu Activity No disponible.
METAR KTEB 040651Z 00000KT 10SM FEW110 22/15 A2995 RMK AO2 SLP143 T02170150

More Conditions Fewer Conditions

10-Day Weather Forecast

×

Almanac

Astronomía

Jul. 04, 2015 Salida Puesta
Hora real
Crepúsculo civil
Crepúsculo náutico
Crepúsculo astronómico
Luna
Horas de luz
Horas de luz
Tomorrow will be .
, % of the Moon is Illuminated

Extremos de hoy

Máximos del estado Bajos del estado

Community

WunderPhotos

Upload Photos

1,834,926 ¡fotos cargadas!

WunderBlogs® & News

Nearby

Calidad del aire

  Calidad del aire Índice AQ Contaminante
Not available.

Grosos de nieve

Estación Profundido Altura

Actividad de terremotos

Ciudad Distance Mag. Tiempo y dato
Magnitud mínima muestra es 2,5.

Temperaturas de aguas costeras

Lugar Temperatura

Stations

Estaciones meteorológicas cercanas

Ubicación de la estación Temp. Vientos helados Punto de rocío Humedad Viento Precip. Alt Actualizado Tipo